MUC weather

Munich Airport
Munich, Bavaria, Germany

Public forecast

Using degrees Celsius for public forecast. Weather courtesy of forecast.io.

METAR (pilot weather report)

Retrieved 2017/11/17 22:20 UTC (0 seconds ago):

EDDM 172220Z 02001KT 9999 FEW019 SCT050 BKN065 02/01 Q1024 NOSIG

TAF (pilot weather forecast)

Retrieved 2017/11/17 18:55 UTC (3 hours ago):

TAF COR EDDM 171747Z 1718/1824 22003KT 8000 FEW012 BKN020 BECMG 1718/1721 4000 BR BKN012 TEMPO 1721/1809 2500 -DZ BKN007 BECMG 1809/1812 25009KT 9999 BKN020